createdAt,value
2018-01-27T00:00:00.106Z,27.85
2018-01-27T00:01:03.228Z,28.33
2018-01-27T00:02:05.719Z,29.92
2018-01-27T00:03:08.212Z,27.83
2018-01-27T00:04:10.729Z,28.02
2018-01-27T00:05:13.226Z,26.60
2018-01-27T00:06:17.219Z,28.58
2018-01-27T00:07:20.063Z,29.83
2018-01-27T00:08:22.573Z,28.90
2018-01-27T00:09:25.116Z,26.98
2018-01-27T00:10:27.664Z,28.60
2018-01-27T00:11:31.078Z,27.58
2018-01-27T00:12:33.566Z,27.45
2018-01-27T00:13:36.071Z,30.23
2018-01-27T00:14:38.572Z,28.52
2018-01-27T00:15:41.840Z,28.50
2018-01-27T00:16:45.136Z,30.60
2018-01-27T00:17:48.403Z,27.27
2018-01-27T00:18:50.884Z,26.98
2018-01-27T00:19:53.364Z,29.02
2018-01-27T00:20:56.673Z,28.00
2018-01-27T00:21:59.179Z,28.52
2018-01-27T00:23:02.873Z,26.70
2018-01-27T00:24:05.340Z,25.80
2018-01-27T00:25:07.840Z,26.77
2018-01-27T00:26:10.336Z,26.98
2018-01-27T00:27:12.843Z,25.58
2018-01-27T00:28:15.341Z,27.10
2018-01-27T00:29:17.832Z,26.65
2018-01-27T00:30:20.351Z,27.45
2018-01-27T00:31:23.865Z,29.20
2018-01-27T00:32:26.375Z,26.55
2018-01-27T00:33:28.920Z,28.38
2018-01-27T00:34:31.402Z,26.85
2018-01-27T00:35:33.918Z,27.60
2018-01-27T00:36:36.449Z,29.10
2018-01-27T00:37:38.937Z,27.90
2018-01-27T00:38:42.215Z,28.48
2018-01-27T00:39:44.697Z,29.75
2018-01-27T00:40:47.958Z,29.02
2018-01-27T00:41:50.458Z,27.77
2018-01-27T00:42:53.706Z,31.25
2018-01-27T00:43:56.210Z,29.10
2018-01-27T00:44:58.679Z,29.15
2018-01-27T00:46:01.991Z,28.75
2018-01-27T00:47:04.484Z,30.60
2018-01-27T00:48:06.996Z,29.73
2018-01-27T00:49:09.475Z,28.70
2018-01-27T00:50:11.984Z,31.25
2018-01-27T00:51:14.468Z,29.45
2018-01-27T00:52:16.961Z,30.35
2018-01-27T00:53:19.485Z,30.02
2018-01-27T00:54:22.060Z,30.95
2018-01-27T00:55:24.535Z,29.80
2018-01-27T00:56:27.027Z,29.73
2018-01-27T00:57:29.569Z,30.58
2018-01-27T00:58:32.084Z,29.92
2018-01-27T00:59:34.563Z,34.10
2018-01-27T01:00:37.082Z,31.08
2018-01-27T01:01:39.586Z,31.67
2018-01-27T01:02:42.058Z,30.50
2018-01-27T01:03:44.545Z,31.05
2018-01-27T01:04:47.048Z,32.42
2018-01-27T01:05:50.287Z,33.28
2018-01-27T01:06:52.761Z,30.42
2018-01-27T01:07:55.262Z,30.73
2018-01-27T01:08:57.743Z,31.98
2018-01-27T01:10:00.983Z,33.20
2018-01-27T01:11:03.456Z,32.00
2018-01-27T01:12:05.985Z,32.05
2018-01-27T01:13:08.487Z,31.12
2018-01-27T01:14:11.015Z,34.60
2018-01-27T01:15:14.254Z,33.53
2018-01-27T01:16:16.725Z,33.40
2018-01-27T01:17:19.202Z,29.92
2018-01-27T01:18:21.682Z,34.05
2018-01-27T01:19:24.952Z,32.53
2018-01-27T01:20:27.436Z,31.92
2018-01-27T01:21:29.900Z,31.45
2018-01-27T01:22:32.379Z,32.80
2018-01-27T01:23:34.860Z,33.10
2018-01-27T01:24:37.371Z,34.00
2018-01-27T01:25:39.852Z,33.17
2018-01-27T01:26:43.115Z,32.53
2018-01-27T01:27:46.360Z,33.75
2018-01-27T01:28:48.845Z,31.67
2018-01-27T01:29:51.339Z,34.42
2018-01-27T01:30:54.638Z,32.78
2018-01-27T01:31:57.139Z,33.20
2018-01-27T01:33:00.550Z,31.55
2018-01-27T01:34:03.036Z,31.95
2018-01-27T01:35:05.548Z,32.67
2018-01-27T01:36:08.020Z,32.60
2018-01-27T01:37:10.549Z,34.47
2018-01-27T01:38:13.016Z,31.73
2018-01-27T01:39:15.510Z,36.10
2018-01-27T01:40:18.020Z,31.50
2018-01-27T01:41:20.513Z,35.15
2018-01-27T01:42:28.625Z,33.22
2018-01-27T01:43:36.795Z,35.08
2018-01-27T01:44:39.288Z,35.00
2018-01-27T01:45:41.775Z,33.80
2018-01-27T01:46:44.389Z,34.70
2018-01-27T01:47:47.629Z,33.88
2018-01-27T01:48:50.098Z,34.05
2018-01-27T01:49:52.571Z,32.22
2018-01-27T01:50:55.074Z,32.55
2018-01-27T01:51:58.325Z,35.40
2018-01-27T01:53:00.812Z,33.08
2018-01-27T01:54:03.294Z,33.28
2018-01-27T01:55:05.777Z,32.58
2018-01-27T01:56:09.069Z,36.15
2018-01-27T01:57:12.298Z,34.08
2018-01-27T01:58:14.785Z,33.50
2018-01-27T01:59:17.254Z,32.63
2018-01-27T02:00:19.751Z,33.17
2018-01-27T02:01:22.239Z,34.38
2018-01-27T02:02:24.727Z,34.42
2018-01-27T02:03:27.208Z,32.90
2018-01-27T02:04:29.692Z,33.95
2018-01-27T02:05:32.164Z,33.78
2018-01-27T02:06:34.681Z,34.15
2018-01-27T02:07:37.932Z,33.03
2018-01-27T02:08:40.401Z,33.08
2018-01-27T02:09:42.875Z,33.50
2018-01-27T02:10:45.371Z,33.90
2018-01-27T02:11:47.863Z,33.13
2018-01-27T02:12:50.440Z,31.90
2018-01-27T02:13:52.915Z,34.47
2018-01-27T02:14:55.392Z,34.28
2018-01-27T02:15:57.905Z,34.92
2018-01-27T02:17:00.405Z,34.88
2018-01-27T02:18:02.906Z,35.30
2018-01-27T02:19:05.385Z,34.80
2018-01-27T02:20:07.891Z,34.85
2018-01-27T02:21:10.376Z,36.33
2018-01-27T02:22:13.644Z,33.08
2018-01-27T02:23:16.126Z,36.95
2018-01-27T02:24:18.594Z,32.47
2018-01-27T02:25:21.104Z,32.42
2018-01-27T02:26:24.343Z,35.55
2018-01-27T02:27:26.895Z,34.28
2018-01-27T02:28:29.377Z,33.40
2018-01-27T02:29:31.849Z,33.38
2018-01-27T02:30:35.089Z,35.25
2018-01-27T02:31:38.360Z,32.65
2018-01-27T02:32:40.984Z,34.63
2018-01-27T02:33:43.481Z,33.55
2018-01-27T02:34:45.989Z,34.05
2018-01-27T02:35:49.243Z,34.85
2018-01-27T02:36:51.728Z,32.90
2018-01-27T02:37:54.219Z,35.38
2018-01-27T02:38:57.591Z,35.53
2018-01-27T02:40:00.075Z,34.47
2018-01-27T02:41:03.330Z,33.22
2018-01-27T02:42:05.815Z,33.90
2018-01-27T02:43:08.751Z,35.08
2018-01-27T02:44:11.248Z,34.45
2018-01-27T02:45:13.736Z,33.22
2018-01-27T02:46:16.240Z,32.53
2018-01-27T02:47:19.490Z,33.38
2018-01-27T02:48:21.959Z,35.30
2018-01-27T02:49:24.808Z,37.53
2018-01-27T02:50:27.560Z,37.08
2018-01-27T02:51:30.131Z,36.92
2018-01-27T02:52:32.616Z,35.10
2018-01-27T02:53:35.089Z,36.38
2018-01-27T02:54:37.585Z,36.13
2018-01-27T02:55:40.068Z,38.15
2018-01-27T02:56:42.555Z,36.50
2018-01-27T02:57:45.022Z,37.13
2018-01-27T02:58:47.494Z,35.95
2018-01-27T02:59:49.988Z,33.83
2018-01-27T03:00:52.481Z,37.08
2018-01-27T03:01:54.969Z,36.40
2018-01-27T03:02:57.436Z,36.03
2018-01-27T03:03:59.936Z,37.47
2018-01-27T03:05:03.338Z,38.78
2018-01-27T03:06:05.812Z,36.75
2018-01-27T03:07:08.291Z,36.90
2018-01-27T03:08:11.542Z,35.03
2018-01-27T03:09:14.032Z,34.53
2018-01-27T03:10:16.526Z,35.30
2018-01-27T03:11:19.769Z,36.95
2018-01-27T03:12:22.236Z,35.75
2018-01-27T03:13:24.722Z,35.28
2018-01-27T03:14:27.201Z,36.83
2018-01-27T03:15:29.719Z,34.33
2018-01-27T03:16:32.219Z,35.33
2018-01-27T03:17:34.704Z,34.42
2018-01-27T03:18:37.198Z,34.22
2018-01-27T03:19:40.429Z,36.72
2018-01-27T03:20:42.919Z,37.58
2018-01-27T03:21:45.410Z,35.40
2018-01-27T03:22:48.700Z,36.65
2018-01-27T03:23:51.177Z,35.05
2018-01-27T03:24:53.654Z,34.03
2018-01-27T03:25:56.894Z,37.15
2018-01-27T03:26:59.377Z,37.42
2018-01-27T03:28:01.870Z,34.42
2018-01-27T03:29:04.350Z,36.08
2018-01-27T03:30:07.589Z,38.78
2018-01-27T03:31:10.206Z,36.25
2018-01-27T03:32:13.477Z,36.80
2018-01-27T03:33:16.349Z,37.95
2018-01-27T03:34:18.835Z,37.20
2018-01-27T03:35:21.325Z,34.50
2018-01-27T03:36:25.336Z,39.30
2018-01-27T03:37:27.823Z,37.47
2018-01-27T03:38:30.310Z,35.97
2018-01-27T03:39:32.789Z,36.95
2018-01-27T03:40:35.259Z,37.72
2018-01-27T03:41:37.757Z,38.58
2018-01-27T03:42:40.258Z,37.05
2018-01-27T03:43:43.492Z,35.85
2018-01-27T03:44:45.974Z,35.80
2018-01-27T03:45:49.205Z,36.38
2018-01-27T03:46:51.712Z,37.17
2018-01-27T03:47:54.221Z,36.70
2018-01-27T03:48:56.707Z,35.97
2018-01-27T03:49:59.953Z,37.47
2018-01-27T03:51:02.424Z,35.85
2018-01-27T03:52:04.903Z,37.00
2018-01-27T03:53:07.385Z,35.47
2018-01-27T03:54:09.941Z,37.13
2018-01-27T03:55:12.426Z,36.40
2018-01-27T03:56:15.656Z,35.20
2018-01-27T03:57:18.129Z,38.58
2018-01-27T03:58:20.600Z,35.33
2018-01-27T03:59:23.106Z,37.05
2018-01-27T04:00:25.584Z,35.08
2018-01-27T04:01:28.049Z,36.20
2018-01-27T04:02:30.536Z,34.95
2018-01-27T04:03:33.021Z,34.78
2018-01-27T04:04:36.285Z,33.95
2018-01-27T04:05:38.759Z,37.63
2018-01-27T04:06:41.906Z,36.70
2018-01-27T04:07:44.387Z,37.13
2018-01-27T04:08:46.868Z,34.80
2018-01-27T04:09:49.374Z,35.88
2018-01-27T04:10:51.879Z,34.13
2018-01-27T04:11:54.355Z,36.47
2018-01-27T04:12:56.826Z,38.67
2018-01-27T04:13:59.337Z,35.58
2018-01-27T04:15:01.844Z,35.03
2018-01-27T04:16:04.354Z,37.88
2018-01-27T04:17:06.878Z,36.72
2018-01-27T04:18:10.135Z,36.17
2018-01-27T04:19:12.616Z,34.85
2018-01-27T04:20:15.122Z,36.28
2018-01-27T04:21:17.602Z,37.08
2018-01-27T04:22:20.103Z,40.03
2018-01-27T04:23:22.578Z,39.15
2018-01-27T04:24:25.080Z,37.50
2018-01-27T04:25:28.363Z,36.85
2018-01-27T04:26:30.883Z,37.13
2018-01-27T04:27:34.138Z,35.10
2018-01-27T04:28:37.397Z,38.85
2018-01-27T04:29:39.884Z,35.40
2018-01-27T04:30:42.358Z,36.47
2018-01-27T04:31:44.868Z,36.92
2018-01-27T04:32:47.382Z,36.08
2018-01-27T04:33:49.856Z,35.65
2018-01-27T04:34:52.333Z,38.53
2018-01-27T04:35:54.815Z,37.40
2018-01-27T04:36:58.904Z,38.00
2018-01-27T04:38:01.393Z,36.65
2018-01-27T04:39:04.648Z,36.30
2018-01-27T04:40:07.142Z,39.90
2018-01-27T04:41:09.652Z,37.05
2018-01-27T04:42:12.202Z,35.22
2018-01-27T04:43:14.703Z,36.22
2018-01-27T04:44:17.357Z,35.08
2018-01-27T04:45:19.930Z,37.28
2018-01-27T04:46:22.416Z,35.72
2018-01-27T04:47:24.889Z,39.25
2018-01-27T04:48:27.391Z,38.72
2018-01-27T04:49:30.657Z,36.28
2018-01-27T04:50:33.128Z,36.90
2018-01-27T04:51:35.615Z,37.40
2018-01-27T04:52:38.484Z,36.83
2018-01-27T04:53:40.953Z,37.03
2018-01-27T04:54:43.427Z,37.78
2018-01-27T04:55:46.973Z,36.85
2018-01-27T04:56:49.474Z,37.00
2018-01-27T04:57:51.960Z,36.05
2018-01-27T04:58:54.450Z,36.50
2018-01-27T04:59:56.941Z,37.28
2018-01-27T05:00:59.413Z,35.13
2018-01-27T05:02:01.904Z,36.85
2018-01-27T05:03:04.380Z,38.65
2018-01-27T05:04:07.433Z,35.72
2018-01-27T05:05:09.979Z,37.35
2018-01-27T05:06:12.484Z,36.67
2018-01-27T05:07:15.133Z,38.78
2018-01-27T05:08:17.608Z,40.60
2018-01-27T05:09:20.088Z,36.92
2018-01-27T05:10:22.587Z,35.83
2018-01-27T05:11:25.075Z,36.65
2018-01-27T05:12:27.562Z,35.03
2018-01-27T05:13:30.040Z,33.65
2018-01-27T05:14:32.536Z,36.65
2018-01-27T05:15:35.780Z,34.00
2018-01-27T05:16:38.260Z,36.38
2018-01-27T05:17:40.740Z,35.70
2018-01-27T05:18:43.982Z,36.67
2018-01-27T05:19:47.000Z,34.35
2018-01-27T05:20:49.508Z,37.28
2018-01-27T05:21:52.094Z,35.97
2018-01-27T05:22:55.351Z,35.72
2018-01-27T05:23:58.691Z,36.17
2018-01-27T05:25:01.161Z,35.55
2018-01-27T05:26:03.654Z,35.85
2018-01-27T05:27:06.178Z,36.58
2018-01-27T05:28:08.651Z,35.03
2018-01-27T05:29:11.155Z,31.90
2018-01-27T05:30:13.626Z,36.28
2018-01-27T05:31:16.100Z,34.75
2018-01-27T05:32:18.599Z,33.72
2018-01-27T05:33:21.849Z,33.00
2018-01-27T05:34:24.328Z,34.47
2018-01-27T05:35:26.809Z,36.22
2018-01-27T05:36:29.293Z,31.90
2018-01-27T05:37:31.782Z,31.98
2018-01-27T05:38:35.024Z,31.85
2018-01-27T05:39:37.495Z,31.20
2018-01-27T05:40:39.979Z,33.88
2018-01-27T05:41:42.456Z,33.20
2018-01-27T05:42:44.936Z,32.05
2018-01-27T05:43:48.369Z,33.85
2018-01-27T05:44:50.838Z,32.05
2018-01-27T05:45:54.207Z,32.00
2018-01-27T05:46:57.605Z,34.15
2018-01-27T05:48:00.090Z,32.30
2018-01-27T05:49:02.646Z,32.22
2018-01-27T05:50:05.909Z,34.28
2018-01-27T05:51:09.149Z,34.13
2018-01-27T05:52:11.631Z,32.47
2018-01-27T05:53:14.116Z,32.85
2018-01-27T05:54:17.547Z,31.73
2018-01-27T05:55:20.856Z,33.05
2018-01-27T05:56:24.092Z,35.78
2018-01-27T05:57:26.568Z,33.15
2018-01-27T05:58:29.050Z,33.95
2018-01-27T05:59:32.342Z,32.75
2018-01-27T06:00:35.591Z,32.13
2018-01-27T06:01:38.069Z,34.03
2018-01-27T06:02:40.534Z,33.13
2018-01-27T06:03:43.020Z,33.47
2018-01-27T06:04:45.496Z,31.33
2018-01-27T06:05:47.997Z,30.95
2018-01-27T06:06:51.244Z,32.00
2018-01-27T06:07:53.733Z,30.17
2018-01-27T06:08:56.981Z,30.15
2018-01-27T06:09:59.457Z,29.67
2018-01-27T06:11:01.944Z,30.45
2018-01-27T06:12:04.425Z,32.10
2018-01-27T06:13:06.909Z,30.35
2018-01-27T06:14:09.403Z,30.90
2018-01-27T06:15:11.887Z,29.25
2018-01-27T06:16:14.371Z,29.23
2018-01-27T06:17:16.851Z,29.02
2018-01-27T06:18:19.323Z,30.02
2018-01-27T06:19:21.829Z,29.02
2018-01-27T06:20:24.336Z,30.83
2018-01-27T06:21:26.821Z,29.45
2018-01-27T06:22:29.303Z,28.62
2018-01-27T06:23:31.777Z,31.55
2018-01-27T06:24:34.256Z,30.70
2018-01-27T06:25:36.742Z,32.78
2018-01-27T06:26:39.975Z,31.87
2018-01-27T06:27:42.458Z,31.08
2018-01-27T06:28:44.930Z,33.08
2018-01-27T06:29:47.402Z,33.30
2018-01-27T06:30:49.904Z,34.80
2018-01-27T06:31:52.387Z,33.10
2018-01-27T06:32:55.639Z,32.55
2018-01-27T06:33:58.116Z,33.53
2018-01-27T06:35:00.594Z,32.25
2018-01-27T06:36:03.104Z,31.25
2018-01-27T06:37:05.583Z,32.20
2018-01-27T06:38:08.823Z,36.15
2018-01-27T06:39:11.409Z,32.50
2018-01-27T06:40:14.695Z,30.42
2018-01-27T06:41:17.193Z,32.53
2018-01-27T06:42:19.689Z,32.47
2018-01-27T06:43:22.186Z,33.30
2018-01-27T06:44:24.668Z,32.13
2018-01-27T06:45:27.156Z,35.40
2018-01-27T06:46:29.752Z,32.65
2018-01-27T06:47:32.254Z,32.85
2018-01-27T06:48:34.749Z,33.80
2018-01-27T06:49:37.235Z,31.70
2018-01-27T06:50:39.720Z,29.92
2018-01-27T06:51:42.955Z,33.08
2018-01-27T06:52:45.462Z,31.52
2018-01-27T06:53:47.964Z,32.65
2018-01-27T06:54:50.444Z,33.03
2018-01-27T06:55:52.923Z,32.70
2018-01-27T06:56:55.392Z,29.95
2018-01-27T06:57:57.888Z,32.25
2018-01-27T06:59:00.381Z,30.67
2018-01-27T07:00:02.872Z,32.08
2018-01-27T07:01:06.120Z,30.65
2018-01-27T07:02:08.621Z,31.25
2018-01-27T07:03:12.039Z,31.52
2018-01-27T07:04:14.591Z,33.47
2018-01-27T07:05:17.070Z,33.08
2018-01-27T07:06:20.308Z,31.25
2018-01-27T07:07:22.790Z,30.95
2018-01-27T07:08:25.272Z,31.35
2018-01-27T07:09:27.774Z,30.08
2018-01-27T07:10:30.258Z,31.17
2018-01-27T07:11:32.743Z,30.90
2018-01-27T07:12:35.223Z,31.48
2018-01-27T07:13:37.696Z,31.73
2018-01-27T07:14:40.204Z,32.25
2018-01-27T07:15:43.450Z,33.85
2018-01-27T07:16:45.940Z,33.03
2018-01-27T07:17:48.448Z,32.80
2018-01-27T07:18:51.855Z,32.75
2018-01-27T07:19:54.345Z,34.00
2018-01-27T07:20:56.864Z,32.35
2018-01-27T07:21:59.349Z,33.30
2018-01-27T07:23:02.609Z,33.15
2018-01-27T07:24:05.091Z,33.70
2018-01-27T07:25:07.600Z,33.22
2018-01-27T07:26:10.188Z,33.15
2018-01-27T07:27:13.545Z,35.15
2018-01-27T07:28:17.828Z,32.28
2018-01-27T07:29:20.333Z,33.22
2018-01-27T07:30:22.820Z,34.33
2018-01-27T07:31:25.301Z,31.40
2018-01-27T07:32:27.803Z,33.95
2018-01-27T07:33:30.303Z,34.00
2018-01-27T07:34:33.580Z,32.30
2018-01-27T07:35:36.209Z,32.60
2018-01-27T07:36:39.510Z,32.78
2018-01-27T07:37:42.024Z,34.65
2018-01-27T07:38:45.325Z,35.38
2018-01-27T07:39:47.809Z,35.78
2018-01-27T07:40:50.309Z,34.85
2018-01-27T07:41:52.813Z,33.85
2018-01-27T07:42:56.116Z,34.08
2018-01-27T07:43:59.361Z,32.83
2018-01-27T07:45:01.839Z,34.03
2018-01-27T07:46:04.323Z,35.22
2018-01-27T07:47:06.811Z,33.30
2018-01-27T07:48:10.238Z,33.90
2018-01-27T07:49:12.894Z,33.90
2018-01-27T07:50:15.373Z,35.92
2018-01-27T07:51:17.868Z,35.88
2018-01-27T07:52:20.346Z,36.15
2018-01-27T07:53:22.852Z,36.88
2018-01-27T07:54:25.333Z,36.80
2018-01-27T07:55:27.828Z,35.03
2018-01-27T07:56:30.320Z,34.97
2018-01-27T07:57:32.788Z,37.47
2018-01-27T07:58:35.273Z,36.40
2018-01-27T07:59:37.759Z,39.35
2018-01-27T08:00:40.248Z,32.58
2018-01-27T08:01:43.496Z,35.80
2018-01-27T08:02:46.032Z,38.20
2018-01-27T08:03:48.502Z,36.58
2018-01-27T08:04:50.985Z,33.78
2018-01-27T08:05:54.317Z,33.30
2018-01-27T08:06:56.812Z,36.13
2018-01-27T08:08:00.076Z,35.85
2018-01-27T08:09:02.563Z,37.58
2018-01-27T08:10:05.886Z,34.15
2018-01-27T08:11:08.495Z,33.50
2018-01-27T08:12:11.113Z,33.30
2018-01-27T08:13:13.595Z,33.90
2018-01-27T08:14:16.087Z,33.92
2018-01-27T08:15:18.555Z,35.63
2018-01-27T08:16:21.048Z,38.90
2018-01-27T08:17:23.535Z,33.03
2018-01-27T08:18:26.024Z,35.88
2018-01-27T08:19:29.269Z,36.95
2018-01-27T08:20:31.767Z,34.00
2018-01-27T08:21:35.189Z,37.10
2018-01-27T08:22:37.701Z,35.40
2018-01-27T08:23:40.181Z,35.47
2018-01-27T08:24:42.640Z,35.65
2018-01-27T08:25:45.139Z,34.88
2018-01-27T08:26:47.604Z,38.00
2018-01-27T08:27:50.105Z,34.85
2018-01-27T08:28:53.371Z,35.80
2018-01-27T08:29:55.848Z,34.92
2018-01-27T08:30:59.131Z,32.88
2018-01-27T08:32:01.617Z,36.08
2018-01-27T08:33:04.897Z,33.15
2018-01-27T08:34:08.196Z,35.70
2018-01-27T08:35:11.547Z,34.25
2018-01-27T08:36:14.065Z,35.72
2018-01-27T08:37:17.351Z,35.92
2018-01-27T08:38:20.608Z,36.92
2018-01-27T08:39:23.087Z,33.90
2018-01-27T08:40:25.586Z,36.67
2018-01-27T08:41:28.071Z,33.80
2018-01-27T08:42:30.572Z,36.58
2018-01-27T08:43:33.096Z,38.42
2018-01-27T08:44:36.356Z,35.70
2018-01-27T08:45:38.915Z,38.50
2018-01-27T08:46:41.360Z,34.80
2018-01-27T08:47:43.888Z,34.83
2018-01-27T08:48:47.156Z,34.75
2018-01-27T08:49:49.682Z,35.95
2018-01-27T08:50:52.181Z,34.90
2018-01-27T08:51:54.674Z,34.40
2018-01-27T08:52:57.164Z,34.30
2018-01-27T08:54:00.431Z,33.92
2018-01-27T08:55:02.944Z,35.92
2018-01-27T08:56:05.446Z,35.33
2018-01-27T08:57:09.702Z,33.08
2018-01-27T08:58:13.045Z,34.47
2018-01-27T08:59:15.554Z,34.20
2018-01-27T09:00:18.023Z,34.25
2018-01-27T09:01:21.277Z,32.13
2018-01-27T09:02:23.752Z,34.90
2018-01-27T09:03:26.252Z,35.58
2018-01-27T09:04:28.736Z,31.98
2018-01-27T09:05:31.225Z,33.95
2018-01-27T09:06:33.738Z,31.15
2018-01-27T09:07:36.252Z,32.65
2018-01-27T09:08:38.729Z,32.83
2018-01-27T09:09:41.216Z,32.58
2018-01-27T09:10:43.715Z,33.03
2018-01-27T09:11:46.214Z,30.20
2018-01-27T09:12:48.812Z,28.85
2018-01-27T09:13:51.292Z,27.52
2018-01-27T09:14:53.794Z,29.95
2018-01-27T09:15:56.272Z,30.25
2018-01-27T09:16:58.898Z,28.30
2018-01-27T09:18:01.394Z,29.25
2018-01-27T09:19:03.925Z,30.05
2018-01-27T09:20:07.197Z,29.87
2018-01-27T09:21:10.688Z,28.65
2018-01-27T09:22:13.677Z,28.50
2018-01-27T09:23:16.964Z,28.25
2018-01-27T09:24:19.466Z,27.98
2018-01-27T09:25:21.950Z,25.65
2018-01-27T09:26:24.445Z,26.98
2018-01-27T09:27:26.961Z,26.87
2018-01-27T09:28:30.595Z,27.33
2018-01-27T09:29:33.111Z,28.35
2018-01-27T09:30:35.607Z,27.02
2018-01-27T09:31:38.250Z,27.60
2018-01-27T09:32:40.802Z,30.40
2018-01-27T09:33:43.286Z,27.67
2018-01-27T09:34:45.780Z,28.00
2018-01-27T09:35:49.032Z,26.40
2018-01-27T09:36:51.527Z,26.77
2018-01-27T09:37:54.034Z,26.35
2018-01-27T09:38:56.532Z,25.67
2018-01-27T09:39:59.021Z,26.20
2018-01-27T09:41:01.507Z,26.00
2018-01-27T09:42:04.012Z,25.45
2018-01-27T09:43:06.906Z,24.40
2018-01-27T09:44:09.516Z,24.98
2018-01-27T09:45:12.235Z,23.08
2018-01-27T09:46:14.731Z,24.17
2018-01-27T09:47:17.232Z,24.45
2018-01-27T09:48:19.728Z,25.65
2018-01-27T09:49:22.376Z,23.30
2018-01-27T09:50:24.888Z,21.92
2018-01-27T09:51:27.802Z,22.60
2018-01-27T09:52:30.303Z,21.33
2018-01-27T09:53:32.822Z,20.33
2018-01-27T09:54:35.320Z,19.52
2018-01-27T09:55:37.835Z,19.70
2018-01-27T09:56:42.063Z,20.77
2018-01-27T09:57:45.342Z,21.62
2018-01-27T09:58:48.650Z,19.23
2018-01-27T09:59:51.171Z,19.55
2018-01-27T10:00:53.708Z,17.67
2018-01-27T10:01:56.216Z,18.95
2018-01-27T10:02:58.715Z,16.83
2018-01-27T10:04:01.999Z,16.20
2018-01-27T10:05:05.281Z,17.42
2018-01-27T10:06:07.813Z,16.55
2018-01-27T10:07:10.478Z,14.80
2018-01-27T10:08:13.779Z,15.77
2018-01-27T10:09:16.262Z,15.32
2018-01-27T10:10:18.811Z,15.63
2018-01-27T10:11:22.115Z,13.13
2018-01-27T10:12:24.600Z,14.25
2018-01-27T10:13:27.111Z,14.48
2018-01-27T10:14:30.377Z,15.63
2018-01-27T10:15:32.932Z,16.17
2018-01-27T10:16:35.398Z,16.95
2018-01-27T10:17:37.879Z,20.62
2018-01-27T10:18:40.380Z,20.17
2018-01-27T10:19:42.885Z,19.48
2018-01-27T10:20:45.394Z,21.98
2018-01-27T10:21:48.044Z,22.65
2018-01-27T10:22:50.490Z,24.10
2018-01-27T10:23:52.969Z,23.80
2018-01-27T10:24:55.492Z,22.67
2018-01-27T10:25:57.969Z,23.87
2018-01-27T10:27:01.612Z,26.70
2018-01-27T10:28:04.199Z,27.08
2018-01-27T10:29:06.704Z,26.87
2018-01-27T10:30:11.135Z,24.73
2018-01-27T10:31:14.396Z,26.27
2018-01-27T10:32:16.903Z,26.33
2018-01-27T10:33:19.406Z,30.40
2018-01-27T10:34:21.930Z,30.52
2018-01-27T10:35:25.184Z,31.12
2018-01-27T10:36:27.681Z,32.78
2018-01-27T10:37:30.954Z,33.45
2018-01-27T10:38:33.459Z,33.90
2018-01-27T10:39:35.941Z,35.33
2018-01-27T10:40:38.446Z,32.22
2018-01-27T10:41:40.995Z,33.60
2018-01-27T10:42:43.539Z,32.28
2018-01-27T10:43:46.033Z,32.90
2018-01-27T10:44:48.639Z,33.33
2018-01-27T10:45:51.180Z,31.35
2018-01-27T10:46:53.680Z,33.28
2018-01-27T10:47:56.180Z,32.33
2018-01-27T10:48:59.452Z,35.70
2018-01-27T10:50:01.940Z,33.03
2018-01-27T10:51:05.207Z,35.20
2018-01-27T10:52:07.824Z,33.95
2018-01-27T10:53:10.492Z,36.00
2018-01-27T10:54:13.240Z,36.85
2018-01-27T10:55:15.729Z,37.08
2018-01-27T10:56:18.986Z,37.13
2018-01-27T10:57:21.477Z,38.33
2018-01-27T10:58:24.831Z,34.90
2018-01-27T10:59:27.381Z,36.42
2018-01-27T11:00:29.876Z,34.92
2018-01-27T11:01:32.364Z,39.28
2018-01-27T11:02:34.859Z,36.90
2018-01-27T11:03:38.132Z,39.25
2018-01-27T11:04:41.755Z,37.65
2018-01-27T11:05:44.310Z,38.50
2018-01-27T11:06:47.569Z,37.00
2018-01-27T11:07:50.184Z,38.67
2018-01-27T11:08:52.698Z,37.35
2018-01-27T11:09:55.223Z,36.40
2018-01-27T11:10:58.486Z,37.50
2018-01-27T11:12:01.003Z,36.97
2018-01-27T11:13:03.503Z,37.65
2018-01-27T11:14:06.014Z,37.42
2018-01-27T11:15:09.283Z,36.25
2018-01-27T11:16:12.053Z,37.75
2018-01-27T11:17:14.586Z,37.80
2018-01-27T11:18:17.086Z,36.72
2018-01-27T11:19:19.594Z,36.53
2018-01-27T11:20:22.906Z,35.47
2018-01-27T11:21:25.400Z,38.45
2018-01-27T11:22:27.871Z,37.58
2018-01-27T11:23:30.374Z,38.85
2018-01-27T11:24:32.876Z,34.75
2018-01-27T11:25:37.154Z,34.80
2018-01-27T11:26:39.668Z,33.85
2018-01-27T11:27:42.200Z,37.08
2018-01-27T11:28:44.700Z,36.25
2018-01-27T11:29:47.216Z,36.63
2018-01-27T11:30:50.295Z,36.30
2018-01-27T11:31:52.789Z,37.95
2018-01-27T11:32:55.268Z,36.58
2018-01-27T11:33:57.867Z,38.28
2018-01-27T11:35:01.123Z,36.97
2018-01-27T11:36:03.657Z,35.05
2018-01-27T11:37:06.168Z,37.20
2018-01-27T11:38:08.647Z,38.15
2018-01-27T11:39:11.973Z,36.88
2018-01-27T11:40:14.494Z,34.53
2018-01-27T11:41:17.070Z,33.83
2018-01-27T11:42:19.556Z,32.67
2018-01-27T11:43:22.059Z,35.80
2018-01-27T11:44:24.548Z,33.35
2018-01-27T11:45:27.085Z,33.30
2018-01-27T11:46:30.353Z,30.50
2018-01-27T11:47:32.843Z,28.87
2018-01-27T11:48:35.344Z,25.42
2018-01-27T11:49:37.861Z,25.37
2018-01-27T11:50:40.374Z,26.87
2018-01-27T11:51:42.921Z,25.23
2018-01-27T11:52:46.309Z,24.33
2018-01-27T11:53:49.579Z,30.75
2018-01-27T11:54:52.049Z,25.40
2018-01-27T11:55:54.542Z,24.80
2018-01-27T11:56:58.142Z,23.23
2018-01-27T11:58:01.394Z,24.23
2018-01-27T11:59:03.890Z,23.23
2018-01-27T12:00:07.236Z,24.80
2018-01-27T12:01:09.907Z,25.02
2018-01-27T12:02:12.707Z,23.85
2018-01-27T12:03:15.207Z,24.73
2018-01-27T12:04:18.486Z,23.17
2018-01-27T12:05:20.984Z,22.98
2018-01-27T12:06:23.559Z,22.62
2018-01-27T12:08:40.651Z,22.87
2018-01-27T12:09:43.936Z,22.75
2018-01-27T12:10:47.258Z,22.67
2018-01-27T12:11:50.534Z,23.10
2018-01-27T12:12:53.074Z,23.50
2018-01-27T12:13:56.331Z,23.08
2018-01-27T12:14:58.842Z,23.87
2018-01-27T12:16:02.256Z,25.20
2018-01-27T12:17:04.831Z,22.70
2018-01-27T12:18:07.406Z,23.35
2018-01-27T12:19:10.079Z,24.30
2018-01-27T12:20:14.307Z,23.30
2018-01-27T12:21:16.826Z,21.95
2018-01-27T12:22:19.342Z,22.92
2018-01-27T12:23:22.640Z,23.27
2018-01-27T12:24:25.894Z,23.92
2018-01-27T12:25:28.406Z,23.90
2018-01-27T12:26:30.905Z,24.60
2018-01-27T12:27:33.417Z,24.65
2018-01-27T12:28:35.943Z,22.87
2018-01-27T12:29:38.462Z,23.38
2018-01-27T12:30:40.989Z,24.00
2018-01-27T12:31:43.533Z,24.33
2018-01-27T12:32:46.036Z,22.95
2018-01-27T12:33:48.577Z,23.27
2018-01-27T12:34:51.141Z,23.83
2018-01-27T12:35:53.660Z,25.02
2018-01-27T12:36:56.168Z,25.17
2018-01-27T12:37:59.830Z,26.35
2018-01-27T12:39:02.502Z,29.08
2018-01-27T12:40:05.019Z,27.87
2018-01-27T12:41:07.528Z,27.75
2018-01-27T12:42:10.297Z,29.05
2018-01-27T12:43:13.604Z,29.27
2018-01-27T12:44:16.121Z,28.00
2018-01-27T12:45:18.614Z,28.45
2018-01-27T12:46:21.143Z,27.87
2018-01-27T12:47:23.649Z,26.73
2018-01-27T12:48:26.206Z,27.45
2018-01-27T12:49:28.771Z,26.37
2018-01-27T12:50:31.377Z,25.75
2018-01-27T12:51:33.864Z,26.60
2018-01-27T12:52:37.387Z,27.75
2018-01-27T12:53:40.062Z,26.30
2018-01-27T12:54:42.582Z,28.42
2018-01-27T12:55:45.204Z,23.70
2018-01-27T12:56:47.713Z,25.40
2018-01-27T12:57:50.981Z,25.05
2018-01-27T12:58:53.546Z,25.05
2018-01-27T12:59:56.084Z,25.40
2018-01-27T13:00:58.921Z,25.42
2018-01-27T13:02:01.527Z,24.48
2018-01-27T13:03:04.078Z,24.60
2018-01-27T13:04:06.659Z,23.55
2018-01-27T13:05:09.208Z,24.23
2018-01-27T13:06:12.540Z,25.12
2018-01-27T13:07:15.096Z,23.27
2018-01-27T13:08:18.104Z,25.10
2018-01-27T13:09:20.581Z,24.10
2018-01-27T13:10:23.101Z,21.45
2018-01-27T13:11:25.585Z,22.52
2018-01-27T13:12:28.521Z,22.80
2018-01-27T13:13:31.791Z,21.40
2018-01-27T13:14:34.325Z,23.60
2018-01-27T13:15:36.976Z,21.45
2018-01-27T13:16:39.500Z,21.73
2018-01-27T13:17:42.079Z,19.35
2018-01-27T13:18:44.580Z,20.33
2018-01-27T13:19:47.061Z,20.15
2018-01-27T13:20:49.668Z,20.30
2018-01-27T13:21:52.181Z,21.35
2018-01-27T13:22:55.480Z,21.52
2018-01-27T13:23:57.972Z,19.65
2018-01-27T13:25:00.481Z,18.12
2018-01-27T13:26:02.993Z,20.60
2018-01-27T13:27:06.280Z,21.65
2018-01-27T13:28:08.780Z,21.37